createdAt,value
2023-04-18T00:00:33.676Z,48.57
2023-04-18T00:03:18.747Z,48.75
2023-04-18T00:06:04.032Z,48.92
2023-04-18T00:08:49.044Z,48.79
2023-04-18T00:11:33.952Z,48.98
2023-04-18T00:14:18.976Z,48.83
2023-04-18T00:17:03.952Z,48.91
2023-04-18T00:19:48.993Z,48.89
2023-04-18T00:22:33.888Z,49.27
2023-04-18T00:25:18.872Z,49.19
2023-04-18T00:28:03.796Z,49.37
2023-04-18T00:30:48.849Z,49.55
2023-04-18T00:33:33.877Z,49.78
2023-04-18T00:36:18.807Z,50.03
2023-04-18T00:39:03.939Z,49.95
2023-04-18T00:41:48.801Z,50.11
2023-04-18T00:44:33.687Z,49.96
2023-04-18T00:47:18.496Z,50.30
2023-04-18T00:52:52.107Z,50.22
2023-04-18T00:55:37.014Z,50.34
2023-04-18T00:58:22.026Z,50.48
2023-04-18T01:01:06.778Z,50.35
2023-04-18T01:03:51.849Z,50.84
2023-04-18T01:06:36.839Z,50.80
2023-04-18T01:09:22.171Z,50.97
2023-04-18T01:12:07.214Z,51.23
2023-04-18T01:14:52.115Z,51.20
2023-04-18T01:17:37.122Z,51.13
2023-04-18T01:20:21.936Z,51.41
2023-04-18T01:23:06.942Z,51.67
2023-04-18T01:25:52.029Z,51.80
2023-04-18T01:28:36.982Z,51.77
2023-04-18T01:31:21.851Z,51.44
2023-04-18T01:34:06.853Z,51.45
2023-04-18T01:36:51.957Z,51.43
2023-04-18T01:39:36.746Z,51.42
2023-04-18T01:42:21.716Z,51.34
2023-04-18T01:45:06.553Z,51.28
2023-04-18T01:47:51.515Z,51.54
2023-04-18T01:50:36.493Z,51.69
2023-04-18T01:53:21.401Z,51.52
2023-04-18T01:56:06.562Z,51.74
2023-04-18T01:58:51.393Z,51.40
2023-04-18T02:01:36.448Z,51.41
2023-04-18T02:04:21.502Z,51.61
2023-04-18T02:07:06.334Z,51.66
2023-04-18T02:09:51.074Z,51.71
2023-04-18T02:12:36.137Z,51.94
2023-04-18T02:15:21.095Z,52.01
2023-04-18T02:18:06.207Z,51.98
2023-04-18T02:20:51.319Z,52.05
2023-04-18T02:23:36.173Z,51.99
2023-04-18T02:26:21.222Z,51.65
2023-04-18T02:29:06.087Z,51.49
2023-04-18T02:31:51.169Z,51.51
2023-04-18T02:34:35.889Z,51.68
2023-04-18T02:37:21.013Z,51.54
2023-04-18T02:40:06.020Z,51.69
2023-04-18T02:42:51.062Z,52.02
2023-04-18T02:45:36.063Z,51.84
2023-04-18T02:48:21.079Z,52.15
2023-04-18T02:51:06.076Z,52.30
2023-04-18T02:53:51.044Z,52.68
2023-04-18T02:56:35.994Z,52.81
2023-04-18T02:59:20.970Z,52.59
2023-04-18T03:02:06.045Z,52.35
2023-04-18T03:04:51.037Z,52.57
2023-04-18T03:07:35.837Z,52.95
2023-04-18T03:10:20.893Z,52.70
2023-04-18T03:13:05.769Z,52.69
2023-04-18T03:15:50.752Z,52.84
2023-04-18T03:18:35.596Z,53.06
2023-04-18T03:21:20.747Z,53.05
2023-04-18T03:24:05.851Z,52.81
2023-04-18T03:26:50.974Z,52.92
2023-04-18T03:29:36.030Z,53.10
2023-04-18T03:32:20.916Z,53.01
2023-04-18T03:35:05.942Z,53.33
2023-04-18T03:37:50.873Z,53.66
2023-04-18T03:40:35.842Z,53.34
2023-04-18T03:43:20.644Z,53.51
2023-04-18T03:46:05.732Z,53.37
2023-04-18T03:48:50.732Z,53.38
2023-04-18T03:51:35.653Z,53.22
2023-04-18T03:54:20.684Z,53.63
2023-04-18T03:57:05.629Z,53.35
2023-04-18T03:59:50.684Z,53.31
2023-04-18T04:02:35.642Z,53.52
2023-04-18T04:05:20.420Z,53.86
2023-04-18T04:08:05.360Z,53.94
2023-04-18T04:10:50.375Z,53.93
2023-04-18T04:13:35.366Z,53.86
2023-04-18T04:16:20.369Z,54.06
2023-04-18T04:19:05.374Z,54.41
2023-04-18T04:21:50.388Z,54.50
2023-04-18T04:24:35.301Z,54.36
2023-04-18T04:27:20.051Z,54.27
2023-04-18T04:30:04.892Z,54.49
2023-04-18T04:32:49.833Z,55.10
2023-04-18T04:35:34.835Z,54.47
2023-04-18T04:38:19.908Z,54.59
2023-04-18T04:41:04.895Z,54.87
2023-04-18T04:43:50.038Z,54.89
2023-04-18T04:46:34.907Z,54.82
2023-04-18T04:49:19.969Z,54.78
2023-04-18T04:52:04.822Z,54.50
2023-04-18T04:54:49.683Z,54.60
2023-04-18T04:57:34.541Z,54.37
2023-04-18T05:00:19.620Z,54.27
2023-04-18T05:03:04.826Z,54.20
2023-04-18T05:05:49.617Z,54.30
2023-04-18T05:08:34.658Z,54.43
2023-04-18T05:11:19.630Z,54.20
2023-04-18T05:14:04.692Z,54.57
2023-04-18T05:16:49.524Z,54.65
2023-04-18T05:19:34.523Z,54.32
2023-04-18T05:22:19.527Z,54.78
2023-04-18T05:25:04.575Z,54.78
2023-04-18T05:27:49.682Z,55.08
2023-04-18T05:30:34.550Z,55.00
2023-04-18T05:33:19.619Z,55.59
2023-04-18T05:36:04.692Z,55.65
2023-04-18T05:38:51.274Z,55.62
2023-04-18T05:41:36.363Z,55.67
2023-04-18T05:44:21.284Z,54.91
2023-04-18T05:47:06.796Z,55.09
2023-04-18T05:49:51.554Z,54.99
2023-04-18T05:52:36.611Z,54.99
2023-04-18T05:55:21.368Z,54.96
2023-04-18T05:58:06.292Z,54.63
2023-04-18T06:00:51.229Z,55.57
2023-04-18T06:03:36.209Z,57.01
2023-04-18T06:06:21.265Z,57.54
2023-04-18T06:09:06.163Z,56.83
2023-04-18T06:11:51.181Z,56.26
2023-04-18T06:14:36.067Z,54.53
2023-04-18T06:17:21.356Z,54.22
2023-04-18T06:20:06.276Z,54.72
2023-04-18T06:22:51.132Z,55.26
2023-04-18T06:25:36.145Z,54.68
2023-04-18T06:28:21.157Z,54.48
2023-04-18T06:31:06.332Z,54.52
2023-04-18T06:33:51.186Z,54.87
2023-04-18T06:36:36.199Z,53.84
2023-04-18T06:39:21.107Z,53.09
2023-04-18T06:42:06.038Z,53.02
2023-04-18T06:44:50.806Z,52.84
2023-04-18T06:47:35.813Z,53.14
2023-04-18T06:50:20.748Z,52.14
2023-04-18T06:53:05.752Z,51.44
2023-04-18T06:55:50.740Z,51.86
2023-04-18T06:58:35.728Z,51.17
2023-04-18T07:01:20.708Z,51.09
2023-04-18T07:04:05.663Z,50.25
2023-04-18T07:06:50.494Z,51.73
2023-04-18T07:09:35.564Z,52.15
2023-04-18T07:12:20.536Z,51.99
2023-04-18T07:15:05.617Z,51.52
2023-04-18T07:17:50.599Z,51.03
2023-04-18T07:20:35.716Z,52.45
2023-04-18T07:23:20.573Z,53.36
2023-04-18T07:26:05.855Z,51.86
2023-04-18T07:28:50.585Z,51.16
2023-04-18T07:31:35.664Z,50.40
2023-04-18T07:34:20.596Z,49.71
2023-04-18T07:37:05.700Z,51.66
2023-04-18T07:39:50.863Z,50.21
2023-04-18T07:42:35.779Z,51.22
2023-04-18T07:45:20.863Z,50.60
2023-04-18T07:48:05.665Z,51.04
2023-04-18T07:50:50.594Z,51.42
2023-04-18T07:53:35.557Z,51.48
2023-04-18T07:56:20.461Z,51.11
2023-04-18T07:59:05.356Z,49.12
2023-04-18T08:01:50.373Z,48.08
2023-04-18T08:04:35.834Z,49.39
2023-04-18T08:07:21.001Z,48.02
2023-04-18T08:10:06.130Z,48.60
2023-04-18T08:12:51.020Z,47.51
2023-04-18T08:15:36.169Z,45.55
2023-04-18T08:18:21.274Z,46.27
2023-04-18T08:21:07.712Z,46.49
2023-04-18T08:23:52.915Z,43.67
2023-04-18T08:26:37.892Z,41.78
2023-04-18T08:29:22.824Z,42.06
2023-04-18T08:32:07.937Z,42.99
2023-04-18T08:34:52.664Z,42.21
2023-04-18T08:37:37.611Z,42.93
2023-04-18T08:40:22.529Z,41.13
2023-04-18T08:43:07.523Z,40.30
2023-04-18T08:45:53.867Z,39.53
2023-04-18T08:48:38.575Z,40.63
2023-04-18T08:51:23.481Z,39.57
2023-04-18T08:54:08.663Z,40.25
2023-04-18T08:56:53.734Z,39.13
2023-04-18T08:59:38.742Z,40.58
2023-04-18T09:02:23.959Z,38.48
2023-04-18T09:05:08.785Z,38.31
2023-04-18T09:07:53.657Z,38.93
2023-04-18T09:10:38.572Z,39.00
2023-04-18T09:13:24.613Z,37.16
2023-04-18T09:16:09.560Z,38.34
2023-04-18T09:18:54.354Z,38.10
2023-04-18T09:21:39.345Z,38.21
2023-04-18T09:24:24.460Z,37.25
2023-04-18T09:27:09.108Z,36.92
2023-04-18T09:29:54.693Z,37.49
2023-04-18T09:32:40.930Z,38.40
2023-04-18T09:35:25.844Z,37.96
2023-04-18T09:38:10.698Z,36.68
2023-04-18T09:40:55.600Z,39.71
2023-04-18T09:43:40.514Z,37.36
2023-04-18T09:46:25.422Z,35.83
2023-04-18T09:49:11.091Z,37.47
2023-04-18T09:51:56.338Z,37.78
2023-04-18T09:54:41.206Z,36.07
2023-04-18T09:57:26.097Z,35.36
2023-04-18T10:00:11.167Z,35.83
2023-04-18T10:02:56.157Z,38.30
2023-04-18T10:05:41.320Z,36.14
2023-04-18T10:08:26.213Z,36.86
2023-04-18T10:11:11.079Z,34.82
2023-04-18T10:13:56.040Z,35.94
2023-04-18T10:16:41.348Z,35.52
2023-04-18T10:19:28.648Z,35.06
2023-04-18T10:22:13.516Z,34.14
2023-04-18T10:24:58.443Z,34.02
2023-04-18T10:27:43.212Z,31.77
2023-04-18T10:30:27.901Z,31.90
2023-04-18T10:33:21.860Z,30.44
2023-04-18T10:36:13.417Z,30.93
2023-04-18T10:38:58.319Z,30.96
2023-04-18T10:41:43.275Z,31.36
2023-04-18T10:44:28.423Z,32.18
2023-04-18T10:47:13.446Z,29.02
2023-04-18T10:49:58.454Z,30.30
2023-04-18T10:52:43.225Z,30.08
2023-04-18T10:55:28.383Z,30.29
2023-04-18T10:58:13.368Z,31.42
2023-04-18T11:00:58.400Z,31.92
2023-04-18T11:03:43.571Z,31.82
2023-04-18T11:06:30.524Z,32.12
2023-04-18T11:09:15.591Z,31.56
2023-04-18T11:12:00.501Z,31.54
2023-04-18T11:14:45.450Z,32.74
2023-04-18T11:17:30.557Z,31.38
2023-04-18T11:20:15.351Z,31.49
2023-04-18T11:23:00.423Z,31.45
2023-04-18T11:25:45.412Z,30.88
2023-04-18T11:28:30.332Z,30.99
2023-04-18T11:31:15.156Z,31.42
2023-04-18T11:34:00.056Z,32.88
2023-04-18T11:36:44.913Z,33.01
2023-04-18T11:39:29.921Z,31.09
2023-04-18T11:42:14.748Z,31.57
2023-04-18T11:44:59.830Z,31.47
2023-04-18T11:47:44.850Z,33.27
2023-04-18T11:50:29.803Z,31.07
2023-04-18T11:53:14.732Z,30.67
2023-04-18T11:55:59.588Z,31.45
2023-04-18T11:58:44.560Z,31.62
2023-04-18T12:01:29.489Z,32.93
2023-04-18T12:04:14.816Z,32.54
2023-04-18T12:07:00.003Z,33.94
2023-04-18T12:09:44.757Z,32.92
2023-04-18T12:12:29.824Z,33.49
2023-04-18T12:15:14.546Z,31.88
2023-04-18T12:17:59.735Z,30.84
2023-04-18T12:20:44.404Z,31.16
2023-04-18T12:23:29.380Z,31.48
2023-04-18T12:26:14.302Z,31.40
2023-04-18T12:28:59.361Z,31.16
2023-04-18T12:31:44.304Z,31.26
2023-04-18T12:34:29.375Z,31.24
2023-04-18T12:37:14.467Z,30.08
2023-04-18T12:39:59.235Z,30.29
2023-04-18T12:42:44.352Z,29.32
2023-04-18T12:45:29.290Z,29.96
2023-04-18T12:48:14.337Z,31.20
2023-04-18T12:50:59.281Z,27.98
2023-04-18T12:53:44.396Z,28.37
2023-04-18T12:56:29.591Z,26.29
2023-04-18T12:59:14.857Z,28.32
2023-04-18T13:02:00.040Z,28.52
2023-04-18T13:04:45.240Z,29.03
2023-04-18T13:07:30.364Z,28.98
2023-04-18T13:10:15.291Z,27.24
2023-04-18T13:13:00.344Z,28.28
2023-04-18T13:15:45.519Z,27.52
2023-04-18T13:18:30.419Z,26.30
2023-04-18T13:21:15.569Z,25.64
2023-04-18T13:24:00.376Z,26.68
2023-04-18T13:26:45.104Z,26.19
2023-04-18T13:29:29.937Z,26.57
2023-04-18T13:32:15.099Z,27.31
2023-04-18T13:34:59.889Z,28.06
2023-04-18T13:37:44.871Z,29.33
2023-04-18T13:40:29.786Z,26.24
2023-04-18T13:43:15.905Z,26.44
2023-04-18T13:46:00.852Z,27.04
2023-04-18T13:48:45.693Z,27.84
2023-04-18T13:51:30.828Z,25.27
2023-04-18T13:54:15.819Z,27.26
2023-04-18T13:57:00.750Z,25.49
2023-04-18T13:59:45.889Z,25.79
2023-04-18T14:02:30.850Z,25.62
2023-04-18T14:05:15.840Z,26.61
2023-04-18T14:08:00.863Z,26.80
2023-04-18T14:10:45.814Z,29.75
2023-04-18T14:13:30.408Z,30.87
2023-04-18T14:16:15.542Z,28.07
2023-04-18T14:19:00.514Z,29.19
2023-04-18T14:21:45.547Z,29.26
2023-04-18T14:24:30.644Z,29.08
2023-04-18T14:27:15.469Z,28.61
2023-04-18T14:30:00.433Z,28.43
2023-04-18T14:32:45.088Z,26.57
2023-04-18T14:35:30.020Z,27.54
2023-04-18T14:38:14.966Z,28.82
2023-04-18T14:40:59.845Z,29.16
2023-04-18T14:43:44.877Z,29.69
2023-04-18T14:46:29.919Z,29.53
2023-04-18T14:49:15.119Z,30.72
2023-04-18T14:52:00.281Z,29.83
2023-04-18T14:54:45.315Z,29.94
2023-04-18T14:57:30.236Z,29.37
2023-04-18T15:00:15.075Z,29.82
2023-04-18T15:03:00.181Z,30.31
2023-04-18T15:05:45.001Z,29.54
2023-04-18T15:08:31.344Z,31.23
2023-04-18T15:11:17.291Z,29.87
2023-04-18T15:14:02.192Z,28.89
2023-04-18T15:16:47.233Z,29.48
2023-04-18T15:19:32.122Z,30.15
2023-04-18T15:22:17.039Z,29.90
2023-04-18T15:25:01.951Z,30.50
2023-04-18T15:27:47.095Z,30.37
2023-04-18T15:30:31.942Z,28.89
2023-04-18T15:33:16.928Z,29.47
2023-04-18T15:36:01.899Z,30.25
2023-04-18T15:38:46.889Z,31.44
2023-04-18T15:41:31.786Z,30.96
2023-04-18T15:44:16.720Z,32.27
2023-04-18T15:47:01.959Z,31.23
2023-04-18T15:49:46.803Z,31.20
2023-04-18T15:52:31.770Z,31.92
2023-04-18T15:55:16.709Z,32.53
2023-04-18T15:58:01.770Z,32.04
2023-04-18T16:00:46.598Z,31.41
2023-04-18T16:03:31.888Z,31.10
2023-04-18T16:06:16.967Z,31.99
2023-04-18T16:09:01.959Z,32.16
2023-04-18T16:11:47.033Z,31.42
2023-04-18T16:14:31.842Z,32.23
2023-04-18T16:17:16.828Z,32.25
2023-04-18T16:20:01.757Z,31.86
2023-04-18T16:22:46.644Z,30.76
2023-04-18T16:25:31.510Z,31.56
2023-04-18T16:28:16.413Z,31.94
2023-04-18T16:31:01.384Z,32.78
2023-04-18T16:33:46.387Z,32.80
2023-04-18T16:36:31.442Z,32.86
2023-04-18T16:39:16.369Z,32.92
2023-04-18T16:42:01.310Z,32.95
2023-04-18T16:44:46.217Z,33.15
2023-04-18T16:47:31.294Z,33.70
2023-04-18T16:50:16.250Z,33.97
2023-04-18T16:53:01.200Z,33.25
2023-04-18T16:55:47.652Z,33.04
2023-04-18T16:58:32.513Z,33.16
2023-04-18T17:01:17.436Z,33.00
2023-04-18T17:04:03.094Z,32.79
2023-04-18T17:06:48.595Z,32.78
2023-04-18T17:09:34.511Z,32.87
2023-04-18T17:12:19.295Z,32.71
2023-04-18T17:15:04.216Z,33.19
2023-04-18T17:17:49.109Z,32.88
2023-04-18T17:20:34.048Z,33.09
2023-04-18T17:23:18.851Z,33.08
2023-04-18T17:26:03.813Z,33.05
2023-04-18T17:28:48.564Z,32.31
2023-04-18T17:31:33.629Z,32.55
2023-04-18T17:34:18.629Z,32.67
2023-04-18T17:37:03.547Z,33.11
2023-04-18T17:39:48.614Z,32.77
2023-04-18T17:42:33.527Z,33.21
2023-04-18T17:45:18.464Z,33.65
2023-04-18T17:48:03.383Z,33.18
2023-04-18T17:50:48.342Z,32.90
2023-04-18T17:53:33.337Z,33.16
2023-04-18T17:56:18.304Z,32.99
2023-04-18T17:59:03.258Z,33.07
2023-04-18T18:01:48.218Z,34.21
2023-04-18T18:04:33.420Z,33.01
2023-04-18T18:07:18.155Z,34.25
2023-04-18T18:10:03.228Z,34.71
2023-04-18T18:12:48.044Z,34.35
2023-04-18T18:15:32.958Z,34.35
2023-04-18T18:18:17.798Z,35.53
2023-04-18T18:21:02.793Z,35.41
2023-04-18T18:23:47.771Z,35.38
2023-04-18T18:26:32.527Z,35.96
2023-04-18T18:29:19.877Z,35.90
2023-04-18T18:32:04.728Z,36.19
2023-04-18T18:34:49.805Z,35.60
2023-04-18T18:37:34.874Z,35.80
2023-04-18T18:40:19.773Z,36.29
2023-04-18T18:43:04.778Z,35.93
2023-04-18T18:45:49.839Z,36.24
2023-04-18T18:48:34.692Z,36.75
2023-04-18T18:51:19.673Z,36.84
2023-04-18T18:54:04.628Z,37.24
2023-04-18T18:56:49.609Z,37.16
2023-04-18T18:59:34.608Z,36.83
2023-04-18T19:02:19.911Z,36.92
2023-04-18T19:05:04.588Z,37.50
2023-04-18T19:07:49.658Z,38.51
2023-04-18T19:10:34.658Z,38.68
2023-04-18T19:13:19.876Z,38.71
2023-04-18T19:16:04.760Z,38.96
2023-04-18T19:24:55.289Z,38.25
2023-04-18T19:27:40.169Z,37.97
2023-04-18T19:30:25.062Z,38.55
2023-04-18T19:33:10.046Z,39.07
2023-04-18T19:35:55.102Z,39.22
2023-04-18T19:38:40.003Z,39.27
2023-04-18T19:41:24.985Z,38.99
2023-04-18T19:44:09.886Z,39.09
2023-04-18T19:46:54.770Z,39.37
2023-04-18T19:49:39.721Z,40.62
2023-04-18T19:52:24.780Z,41.11
2023-04-18T19:55:09.617Z,41.76
2023-04-18T19:57:54.626Z,42.02
2023-04-18T20:00:39.724Z,41.73
2023-04-18T20:03:24.878Z,41.73
2023-04-18T20:06:09.642Z,42.15
2023-04-18T20:08:54.463Z,42.61
2023-04-18T20:11:39.391Z,42.71
2023-04-18T20:14:24.269Z,43.60
2023-04-18T20:17:09.308Z,43.60
2023-04-18T20:19:54.265Z,43.13
2023-04-18T20:22:39.171Z,43.36
2023-04-18T20:25:24.102Z,43.82
2023-04-18T20:28:08.987Z,44.20
2023-04-18T20:30:53.929Z,43.67
2023-04-18T20:33:38.709Z,43.96
2023-04-18T20:36:23.772Z,43.59
2023-04-18T20:39:08.913Z,43.21
2023-04-18T20:41:53.874Z,42.74
2023-04-18T20:44:38.804Z,41.88
2023-04-18T20:47:23.869Z,42.11
2023-04-18T20:50:08.833Z,41.97
2023-04-18T20:52:53.828Z,41.62
2023-04-18T20:55:38.726Z,41.55
2023-04-18T20:58:25.447Z,41.44
2023-04-18T21:01:10.381Z,41.57
2023-04-18T21:03:55.655Z,41.96
2023-04-18T21:06:40.862Z,41.77
2023-04-18T21:09:26.026Z,42.05
2023-04-18T21:12:10.868Z,41.98
2023-04-18T21:14:55.704Z,42.35
2023-04-18T21:17:40.796Z,42.37
2023-04-18T21:20:25.814Z,42.27
2023-04-18T21:23:10.821Z,42.41
2023-04-18T21:25:55.675Z,42.51
2023-04-18T21:28:40.720Z,42.54
2023-04-18T21:31:25.780Z,42.18
2023-04-18T21:34:10.785Z,42.69
2023-04-18T21:36:55.622Z,42.40
2023-04-18T21:39:40.656Z,42.47
2023-04-18T21:42:25.641Z,42.44
2023-04-18T21:45:10.718Z,42.55
2023-04-18T21:47:55.733Z,42.75
2023-04-18T21:50:40.498Z,43.50
2023-04-18T21:53:25.584Z,43.47
2023-04-18T21:56:10.373Z,43.86
2023-04-18T21:58:55.518Z,43.98
2023-04-18T22:01:40.515Z,43.97
2023-04-18T22:04:25.332Z,43.41
2023-04-18T22:07:10.333Z,43.60
2023-04-18T22:09:55.296Z,44.14
2023-04-18T22:12:40.195Z,43.98
2023-04-18T22:15:25.131Z,44.57
2023-04-18T22:18:10.309Z,44.70
2023-04-18T22:20:55.271Z,44.92
2023-04-18T22:23:40.591Z,45.08
2023-04-18T22:26:25.548Z,44.74
2023-04-18T22:29:10.492Z,44.96
2023-04-18T22:31:55.487Z,44.89
2023-04-18T22:34:40.501Z,44.87
2023-04-18T22:37:25.459Z,44.70
2023-04-18T22:40:10.371Z,45.21
2023-04-18T22:42:55.315Z,45.52
2023-04-18T22:45:40.132Z,45.31
2023-04-18T22:48:25.159Z,44.96
2023-04-18T22:51:09.936Z,45.35
2023-04-18T22:53:54.985Z,44.64
2023-04-18T22:56:39.880Z,44.51
2023-04-18T22:59:24.863Z,45.39
2023-04-18T23:02:10.027Z,44.98
2023-04-18T23:04:55.508Z,45.20
2023-04-18T23:07:40.518Z,45.34
2023-04-18T23:10:25.375Z,44.94
2023-04-18T23:13:10.349Z,45.56
2023-04-18T23:15:55.303Z,44.98
2023-04-18T23:18:40.232Z,45.06
2023-04-18T23:21:25.192Z,45.31
2023-04-18T23:24:10.012Z,45.33
2023-04-18T23:26:55.037Z,45.09
2023-04-18T23:29:39.949Z,44.96
2023-04-18T23:32:24.954Z,44.40
2023-04-18T23:35:09.816Z,44.40
2023-04-18T23:37:54.740Z,44.51
2023-04-18T23:40:39.674Z,44.32
2023-04-18T23:43:24.603Z,44.08
2023-04-18T23:46:09.583Z,44.33
2023-04-18T23:48:54.575Z,44.03
2023-04-18T23:51:39.704Z,44.26
2023-04-18T23:54:24.629Z,44.60
2023-04-18T23:57:09.575Z,44.18
2023-04-18T23:59:54.553Z,44.09
